createdAt,value
2023-03-05T00:01:46.660Z,72.19
2023-03-05T00:04:14.323Z,72.27
2023-03-05T00:06:40.717Z,73.00
2023-03-05T00:09:07.325Z,72.71
2023-03-05T00:11:34.121Z,71.07
2023-03-05T00:14:01.833Z,70.58
2023-03-05T00:16:28.458Z,70.08
2023-03-05T00:18:55.913Z,69.66
2023-03-05T00:21:22.227Z,69.80
2023-03-05T00:23:50.574Z,69.08
2023-03-05T00:26:18.238Z,68.89
2023-03-05T00:28:44.573Z,68.37
2023-03-05T00:31:10.998Z,68.59
2023-03-05T00:33:37.321Z,67.86
2023-03-05T00:36:05.818Z,67.15
2023-03-05T00:38:32.959Z,66.67
2023-03-05T00:40:59.234Z,66.66
2023-03-05T00:43:25.559Z,66.65
2023-03-05T00:45:51.875Z,65.52
2023-03-05T00:48:18.192Z,66.17
2023-03-05T00:50:44.606Z,65.93
2023-03-05T00:53:10.936Z,65.81
2023-03-05T00:55:37.296Z,65.96
2023-03-05T00:58:03.623Z,64.84
2023-03-05T01:00:29.916Z,64.85
2023-03-05T01:02:56.231Z,64.66
2023-03-05T01:05:22.684Z,64.81
2023-03-05T01:07:52.252Z,63.84
2023-03-05T01:10:18.545Z,63.90
2023-03-05T01:12:44.876Z,63.55
2023-03-05T01:15:11.241Z,62.66
2023-03-05T01:17:37.538Z,62.78
2023-03-05T01:20:05.056Z,62.91
2023-03-05T01:22:31.380Z,62.33
2023-03-05T01:24:57.748Z,62.56
2023-03-05T01:27:24.267Z,62.98
2023-03-05T01:29:50.570Z,62.97
2023-03-05T01:32:16.974Z,63.11
2023-03-05T01:34:43.391Z,63.00
2023-03-05T01:37:09.671Z,62.56
2023-03-05T01:39:36.363Z,62.95
2023-03-05T01:42:03.421Z,62.70
2023-03-05T01:44:30.449Z,62.67
2023-03-05T01:46:56.769Z,62.41
2023-03-05T01:49:37.594Z,62.01
2023-03-05T01:52:03.920Z,62.29
2023-03-05T01:54:48.089Z,62.09
2023-03-05T01:57:16.694Z,61.92
2023-03-05T01:59:44.650Z,62.17
2023-03-05T02:02:12.545Z,61.92
2023-03-05T02:04:44.702Z,61.93
2023-03-05T02:07:11.654Z,62.21
2023-03-05T02:09:39.084Z,61.97
2023-03-05T02:12:05.856Z,61.42
2023-03-05T02:14:33.172Z,61.63
2023-03-05T02:16:59.757Z,62.04
2023-03-05T02:19:26.266Z,62.26
2023-03-05T02:21:52.708Z,62.29
2023-03-05T02:24:32.116Z,61.95
2023-03-05T02:26:58.615Z,62.04
2023-03-05T02:29:24.908Z,62.15
2023-03-05T02:31:51.277Z,62.43
2023-03-05T02:34:17.640Z,62.13
2023-03-05T02:36:43.951Z,62.27
2023-03-05T02:39:10.323Z,61.94
2023-03-05T02:41:36.820Z,62.13
2023-03-05T02:44:03.160Z,62.15
2023-03-05T02:46:29.676Z,62.59
2023-03-05T02:48:56.028Z,62.65
2023-03-05T02:51:22.387Z,62.57
2023-03-05T02:53:48.740Z,62.33
2023-03-05T02:56:15.098Z,62.19
2023-03-05T02:58:41.936Z,61.87
2023-03-05T03:01:09.035Z,62.00
2023-03-05T03:03:35.937Z,62.15
2023-03-05T03:06:02.660Z,62.22
2023-03-05T03:08:28.927Z,61.92
2023-03-05T03:10:56.449Z,62.14
2023-03-05T03:13:25.614Z,63.08
2023-03-05T03:16:01.150Z,62.29
2023-03-05T03:18:27.456Z,63.08
2023-03-05T03:20:53.745Z,62.92
2023-03-05T03:23:20.039Z,63.09
2023-03-05T03:25:46.340Z,63.72
2023-03-05T03:28:12.706Z,63.69
2023-03-05T03:30:39.071Z,63.31
2023-03-05T03:33:05.450Z,63.61
2023-03-05T03:35:31.756Z,63.59
2023-03-05T03:37:58.045Z,63.70
2023-03-05T03:40:24.328Z,64.76
2023-03-05T03:42:54.032Z,64.64
2023-03-05T03:45:22.177Z,65.20
2023-03-05T03:47:48.960Z,64.98
2023-03-05T03:50:15.490Z,66.29
2023-03-05T03:52:41.802Z,65.09
2023-03-05T03:55:08.296Z,65.93
2023-03-05T03:57:34.642Z,66.16
2023-03-05T04:00:01.065Z,65.75
2023-03-05T04:02:27.649Z,66.30
2023-03-05T04:04:53.982Z,66.35
2023-03-05T04:07:20.316Z,66.34
2023-03-05T04:09:46.715Z,66.75
2023-03-05T04:12:17.813Z,66.63
2023-03-05T04:14:45.435Z,67.30
2023-03-05T04:17:12.158Z,67.23
2023-03-05T04:19:38.631Z,66.98
2023-03-05T04:22:05.079Z,66.80
2023-03-05T04:24:31.349Z,67.33
2023-03-05T04:26:57.633Z,67.50
2023-03-05T04:29:23.964Z,67.92
2023-03-05T04:31:50.261Z,67.95
2023-03-05T04:34:16.546Z,67.98
2023-03-05T04:36:42.918Z,68.13
2023-03-05T04:39:09.224Z,67.77
2023-03-05T04:41:35.531Z,68.12
2023-03-05T04:44:01.858Z,68.14
2023-03-05T04:46:28.396Z,68.86
2023-03-05T04:48:54.791Z,68.66
2023-03-05T04:51:21.110Z,68.80
2023-03-05T04:53:47.593Z,68.32
2023-03-05T04:56:14.077Z,69.15
2023-03-05T04:58:40.409Z,69.78
2023-03-05T05:01:07.277Z,69.49
2023-03-05T05:03:34.056Z,69.40
2023-03-05T05:06:00.896Z,69.55
2023-03-05T05:08:27.307Z,69.67
2023-03-05T05:11:00.621Z,69.81
2023-03-05T05:13:27.069Z,69.91
2023-03-05T05:15:54.032Z,70.28
2023-03-05T05:18:20.596Z,70.24
2023-03-05T05:20:47.327Z,69.98
2023-03-05T05:23:13.769Z,69.48
2023-03-05T05:25:40.144Z,70.58
2023-03-05T05:28:06.738Z,70.28
2023-03-05T05:30:33.012Z,70.56
2023-03-05T05:32:59.300Z,70.28
2023-03-05T05:35:25.641Z,71.04
2023-03-05T05:37:52.082Z,70.61
2023-03-05T05:40:18.471Z,70.02
2023-03-05T05:42:45.300Z,70.70
2023-03-05T05:45:12.154Z,70.66
2023-03-05T05:47:38.457Z,71.34
2023-03-05T05:50:05.147Z,70.42
2023-03-05T05:52:31.529Z,70.42
2023-03-05T05:54:57.859Z,71.02
2023-03-05T05:57:24.905Z,70.82
2023-03-05T05:59:51.419Z,70.66
2023-03-05T06:02:17.727Z,71.17
2023-03-05T06:04:44.033Z,71.09
2023-03-05T06:07:10.390Z,71.23
2023-03-05T06:09:36.992Z,70.79
2023-03-05T06:12:03.470Z,71.04
2023-03-05T06:14:29.864Z,71.23
2023-03-05T06:16:56.275Z,69.95
2023-03-05T06:19:22.571Z,70.06
2023-03-05T06:21:48.955Z,70.57
2023-03-05T06:24:15.375Z,69.62
2023-03-05T06:26:41.674Z,69.50
2023-03-05T06:29:08.030Z,68.64
2023-03-05T06:31:36.780Z,69.74
2023-03-05T06:34:04.527Z,69.02
2023-03-05T06:36:31.191Z,68.97
2023-03-05T06:38:57.974Z,68.84
2023-03-05T06:41:26.685Z,68.58
2023-03-05T06:43:53.661Z,68.40
2023-03-05T06:46:21.561Z,68.32
2023-03-05T06:48:48.219Z,68.22
2023-03-05T06:51:16.148Z,68.52
2023-03-05T06:53:42.721Z,68.66
2023-03-05T06:56:09.644Z,68.13
2023-03-05T06:58:35.960Z,68.25
2023-03-05T07:01:04.901Z,68.85
2023-03-05T07:03:31.256Z,68.99
2023-03-05T07:05:57.611Z,68.79
2023-03-05T07:08:23.968Z,69.10
2023-03-05T07:10:50.270Z,68.24
2023-03-05T07:13:16.595Z,68.82
2023-03-05T07:15:42.967Z,68.63
2023-03-05T07:18:09.293Z,68.19
2023-03-05T07:20:36.158Z,68.50
2023-03-05T07:23:02.572Z,67.90
2023-03-05T07:25:29.156Z,67.63
2023-03-05T07:27:55.540Z,67.64
2023-03-05T07:30:22.124Z,67.63
2023-03-05T07:32:48.445Z,66.94
2023-03-05T07:35:14.827Z,66.91
2023-03-05T07:37:41.238Z,66.95
2023-03-05T07:40:08.029Z,67.22
2023-03-05T07:42:34.451Z,67.09
2023-03-05T07:45:00.767Z,66.74
2023-03-05T07:47:27.064Z,66.54
2023-03-05T07:49:53.432Z,66.68
2023-03-05T07:52:19.806Z,66.86
2023-03-05T07:54:46.267Z,66.21
2023-03-05T07:57:13.378Z,66.35
2023-03-05T07:59:40.146Z,65.97
2023-03-05T08:02:06.983Z,65.40
2023-03-05T08:04:33.387Z,65.77
2023-03-05T08:07:00.090Z,64.85
2023-03-05T08:09:27.671Z,64.44
2023-03-05T08:11:53.975Z,64.23
2023-03-05T08:14:20.345Z,62.91
2023-03-05T08:16:48.350Z,63.65
2023-03-05T08:19:14.834Z,63.20
2023-03-05T08:21:41.197Z,63.39
2023-03-05T08:24:08.701Z,62.18
2023-03-05T08:26:38.383Z,61.55
2023-03-05T08:29:05.247Z,61.21
2023-03-05T08:31:32.237Z,60.74
2023-03-05T08:34:00.014Z,61.54
2023-03-05T08:36:26.563Z,61.71
2023-03-05T08:38:52.972Z,59.43
2023-03-05T08:41:19.950Z,59.21
2023-03-05T08:43:46.298Z,59.18
2023-03-05T08:46:13.142Z,58.91
2023-03-05T08:48:40.115Z,58.13
2023-03-05T08:51:09.831Z,58.42
2023-03-05T08:53:36.597Z,58.10
2023-03-05T08:56:03.733Z,57.98
2023-03-05T08:58:30.097Z,58.11
2023-03-05T09:00:56.460Z,59.05
2023-03-05T09:03:22.821Z,58.09
2023-03-05T09:05:49.176Z,58.09
2023-03-05T09:08:15.614Z,58.83
2023-03-05T09:10:42.831Z,57.96
2023-03-05T09:13:09.627Z,57.03
2023-03-05T09:15:36.035Z,56.24
2023-03-05T09:18:02.570Z,55.67
2023-03-05T09:20:28.885Z,55.41
2023-03-05T09:22:55.216Z,55.31
2023-03-05T09:25:21.668Z,55.21
2023-03-05T09:27:48.010Z,55.42
2023-03-05T09:30:15.129Z,54.86
2023-03-05T09:32:41.534Z,54.77
2023-03-05T09:35:08.413Z,52.72
2023-03-05T09:37:34.754Z,53.06
2023-03-05T09:40:01.114Z,52.98
2023-03-05T09:42:54.106Z,53.17
2023-03-05T09:45:20.403Z,53.92
2023-03-05T09:47:49.750Z,54.56
2023-03-05T09:50:25.200Z,54.72
2023-03-05T09:52:57.723Z,54.54
2023-03-05T09:55:27.872Z,54.66
2023-03-05T09:57:57.045Z,55.66
2023-03-05T10:00:32.652Z,55.49
2023-03-05T10:03:00.926Z,55.93
2023-03-05T10:05:50.339Z,56.54
2023-03-05T10:08:19.004Z,56.23
2023-03-05T10:10:49.785Z,56.00
2023-03-05T10:13:38.043Z,56.16
2023-03-05T10:16:04.872Z,56.14
2023-03-05T10:18:51.439Z,55.28
2023-03-05T10:21:24.308Z,54.61
2023-03-05T10:24:06.043Z,55.42
2023-03-05T10:26:38.980Z,55.60
2023-03-05T10:29:08.318Z,54.82
2023-03-05T10:31:37.691Z,54.36
2023-03-05T10:34:25.408Z,55.16
2023-03-05T10:37:15.020Z,55.69
2023-03-05T10:39:50.648Z,55.67
2023-03-05T10:42:20.266Z,56.91
2023-03-05T10:44:52.694Z,57.36
2023-03-05T10:47:27.920Z,57.72
2023-03-05T10:49:55.419Z,56.93
2023-03-05T10:52:28.183Z,57.37
2023-03-05T10:54:54.525Z,56.70
2023-03-05T10:57:21.998Z,57.04
2023-03-05T10:59:48.275Z,56.77
2023-03-05T11:02:14.813Z,55.93
2023-03-05T11:04:41.697Z,55.51
2023-03-05T11:07:27.937Z,53.81
2023-03-05T11:10:00.403Z,53.60
2023-03-05T11:12:27.940Z,53.27
2023-03-05T11:15:03.635Z,52.55
2023-03-05T11:17:32.354Z,51.88
2023-03-05T11:20:19.229Z,52.25
2023-03-05T11:23:04.066Z,52.35
2023-03-05T11:25:31.177Z,52.20
2023-03-05T11:27:59.660Z,50.97
2023-03-05T11:30:33.220Z,49.57
2023-03-05T11:33:20.486Z,49.27
2023-03-05T11:35:47.525Z,49.92
2023-03-05T11:38:18.794Z,49.08
2023-03-05T11:40:45.761Z,49.32
2023-03-05T11:43:16.868Z,49.37
2023-03-05T11:45:44.090Z,49.61
2023-03-05T11:48:17.673Z,49.03
2023-03-05T11:50:45.640Z,48.99
2023-03-05T11:53:14.845Z,48.29
2023-03-05T11:55:43.923Z,48.63
2023-03-05T11:58:13.248Z,48.13
2023-03-05T12:00:43.044Z,47.75
2023-03-05T12:03:13.803Z,48.06
2023-03-05T12:05:41.938Z,48.24
2023-03-05T12:08:12.312Z,48.38
2023-03-05T12:10:38.762Z,48.66
2023-03-05T12:13:12.407Z,48.75
2023-03-05T12:15:46.806Z,51.00
2023-03-05T12:18:19.607Z,51.32
2023-03-05T12:20:46.535Z,52.08
2023-03-05T12:23:17.896Z,52.35
2023-03-05T12:25:50.222Z,52.26
2023-03-05T12:28:36.549Z,52.01
2023-03-05T12:31:21.617Z,52.14
2023-03-05T12:33:48.013Z,51.12
2023-03-05T12:36:17.187Z,50.32
2023-03-05T12:38:44.157Z,50.89
2023-03-05T12:41:22.634Z,51.50
2023-03-05T12:44:07.326Z,51.09
2023-03-05T12:46:35.594Z,51.01
2023-03-05T12:49:20.258Z,51.64
2023-03-05T12:51:48.131Z,51.13
2023-03-05T12:54:24.597Z,50.28
2023-03-05T12:56:52.361Z,50.30
2023-03-05T12:59:20.537Z,49.20
2023-03-05T13:01:50.656Z,49.19
2023-03-05T13:04:21.125Z,49.66
2023-03-05T13:06:57.457Z,48.86
2023-03-05T13:09:25.333Z,48.83
2023-03-05T13:11:53.812Z,49.11
2023-03-05T13:14:37.664Z,49.47
2023-03-05T13:17:23.906Z,48.32
2023-03-05T13:19:50.367Z,48.69
2023-03-05T13:22:16.768Z,48.66
2023-03-05T13:24:43.088Z,48.99
2023-03-05T13:27:30.115Z,49.26
2023-03-05T13:29:56.490Z,48.49
2023-03-05T13:32:25.832Z,48.58
2023-03-05T13:34:53.895Z,49.07
2023-03-05T13:37:21.531Z,49.34
2023-03-05T13:39:47.837Z,48.32
2023-03-05T13:42:25.697Z,49.06
2023-03-05T13:44:59.759Z,48.90
2023-03-05T13:47:28.591Z,48.10
2023-03-05T13:49:56.070Z,48.46
2023-03-05T13:52:29.881Z,48.47
2023-03-05T13:54:56.985Z,48.93
2023-03-05T13:57:43.212Z,48.51
2023-03-05T14:00:26.058Z,48.86
2023-03-05T14:02:59.505Z,48.73
2023-03-05T14:05:26.769Z,49.88
2023-03-05T14:07:53.304Z,49.41
2023-03-05T14:10:38.068Z,49.79
2023-03-05T14:13:05.854Z,50.07
2023-03-05T14:15:33.800Z,49.81
2023-03-05T14:18:15.962Z,49.49
2023-03-05T14:20:59.647Z,49.49
2023-03-05T14:23:32.186Z,49.66
2023-03-05T14:26:13.804Z,49.27
2023-03-05T14:28:40.584Z,49.00
2023-03-05T14:31:15.404Z,48.22
2023-03-05T14:33:41.875Z,48.90
2023-03-05T14:36:09.078Z,49.35
2023-03-05T14:38:39.206Z,48.25
2023-03-05T14:41:24.406Z,48.32
2023-03-05T14:43:50.784Z,48.95
2023-03-05T14:46:17.435Z,48.47
2023-03-05T14:48:43.864Z,48.48
2023-03-05T14:51:10.405Z,48.25
2023-03-05T14:53:40.171Z,49.11
2023-03-05T14:56:07.057Z,48.71
2023-03-05T14:58:35.345Z,48.67
2023-03-05T15:01:01.684Z,48.04
2023-03-05T15:03:28.130Z,48.47
2023-03-05T15:05:56.192Z,48.70
2023-03-05T15:08:24.373Z,48.67
2023-03-05T15:10:51.407Z,48.61
2023-03-05T15:13:17.965Z,49.38
2023-03-05T15:15:45.218Z,48.54
2023-03-05T15:18:16.091Z,49.54
2023-03-05T15:20:42.681Z,48.72
2023-03-05T15:23:09.085Z,49.25
2023-03-05T15:25:35.458Z,48.48
2023-03-05T15:28:02.071Z,49.19
2023-03-05T15:30:35.436Z,48.91
2023-03-05T15:33:03.103Z,49.25
2023-03-05T15:35:29.759Z,49.31
2023-03-05T15:37:57.844Z,48.37
2023-03-05T15:40:24.492Z,49.18
2023-03-05T15:42:50.903Z,49.61
2023-03-05T15:45:17.261Z,50.21
2023-03-05T15:47:43.755Z,51.63
2023-03-05T15:50:10.622Z,51.09
2023-03-05T15:52:36.974Z,50.79
2023-03-05T15:55:03.524Z,51.05
2023-03-05T15:57:29.835Z,51.50
2023-03-05T15:59:56.233Z,51.71
2023-03-05T16:02:24.601Z,51.59
2023-03-05T16:04:50.943Z,52.71
2023-03-05T16:07:17.405Z,52.03
2023-03-05T16:09:47.940Z,52.69
2023-03-05T16:12:16.051Z,52.03
2023-03-05T16:14:42.455Z,52.76
2023-03-05T16:17:09.074Z,52.36
2023-03-05T16:19:37.001Z,53.07
2023-03-05T16:22:03.300Z,53.19
2023-03-05T16:24:29.791Z,52.41
2023-03-05T16:26:56.231Z,53.13
2023-03-05T16:29:22.716Z,53.63
2023-03-05T16:31:50.602Z,54.57
2023-03-05T16:34:18.660Z,54.47
2023-03-05T16:36:47.073Z,54.23
2023-03-05T16:39:13.381Z,54.82
2023-03-05T16:41:39.719Z,54.69
2023-03-05T16:44:06.267Z,54.51
2023-03-05T16:46:35.063Z,55.11
2023-03-05T16:49:02.059Z,55.47
2023-03-05T16:51:28.493Z,55.62
2023-03-05T16:53:55.828Z,56.54
2023-03-05T16:56:22.679Z,56.76
2023-03-05T16:58:51.393Z,56.69
2023-03-05T17:01:20.598Z,57.58
2023-03-05T17:03:47.648Z,57.73
2023-03-05T17:06:15.557Z,58.33
2023-03-05T17:08:42.572Z,57.99
2023-03-05T17:11:09.347Z,57.96
2023-03-05T17:13:36.209Z,58.50
2023-03-05T17:16:02.751Z,58.75
2023-03-05T17:18:29.407Z,59.21
2023-03-05T17:20:55.728Z,59.37
2023-03-05T17:23:22.488Z,59.37
2023-03-05T17:25:49.009Z,59.42
2023-03-05T17:28:15.451Z,59.90
2023-03-05T17:30:42.196Z,59.81
2023-03-05T17:33:09.750Z,59.72
2023-03-05T17:35:36.347Z,59.90
2023-03-05T17:38:03.729Z,60.16
2023-03-05T17:40:30.242Z,60.00
2023-03-05T17:42:56.622Z,60.41
2023-03-05T17:45:23.188Z,60.29
2023-03-05T17:47:49.822Z,60.71
2023-03-05T17:50:16.308Z,60.75
2023-03-05T17:52:42.739Z,60.78
2023-03-05T17:55:11.062Z,61.40
2023-03-05T17:57:42.490Z,61.46
2023-03-05T18:00:19.019Z,61.81
2023-03-05T18:02:46.412Z,60.77
2023-03-05T18:05:13.410Z,60.99
2023-03-05T18:07:39.840Z,62.43
2023-03-05T18:10:07.323Z,62.41
2023-03-05T18:12:33.762Z,62.59
2023-03-05T18:15:00.268Z,63.31
2023-03-05T18:17:26.669Z,62.83
2023-03-05T18:19:53.583Z,62.86
2023-03-05T18:22:19.885Z,63.02
2023-03-05T18:24:46.175Z,63.11
2023-03-05T18:27:12.612Z,63.38
2023-03-05T18:29:38.968Z,63.85
2023-03-05T18:32:05.537Z,63.80
2023-03-05T18:34:31.882Z,64.62
2023-03-05T18:37:00.317Z,64.67
2023-03-05T18:39:29.583Z,64.15
2023-03-05T18:41:56.164Z,64.26
2023-03-05T18:44:22.487Z,63.80
2023-03-05T18:46:48.801Z,64.51
2023-03-05T18:49:15.144Z,65.26
2023-03-05T18:51:41.736Z,64.42
2023-03-05T18:54:09.196Z,64.41
2023-03-05T18:56:35.688Z,64.83
2023-03-05T18:59:02.198Z,64.98
2023-03-05T19:01:28.606Z,65.47
2023-03-05T19:03:55.026Z,65.64
2023-03-05T19:06:21.426Z,65.76
2023-03-05T19:08:57.479Z,65.29
2023-03-05T19:11:24.431Z,65.87
2023-03-05T19:13:51.448Z,65.90
2023-03-05T19:16:19.150Z,66.77
2023-03-05T19:19:02.335Z,66.51
2023-03-05T19:21:32.062Z,66.37
2023-03-05T19:23:58.367Z,66.78
2023-03-05T19:26:25.041Z,67.51
2023-03-05T19:28:51.535Z,67.57
2023-03-05T19:31:18.618Z,67.68
2023-03-05T19:33:45.114Z,68.00
2023-03-05T19:36:11.927Z,67.46
2023-03-05T19:38:38.710Z,68.19
2023-03-05T19:41:05.615Z,68.36
2023-03-05T19:43:32.207Z,67.75
2023-03-05T19:46:06.397Z,67.62
2023-03-05T19:48:33.704Z,67.80
2023-03-05T19:51:00.066Z,67.81
2023-03-05T19:53:26.648Z,69.00
2023-03-05T19:55:53.128Z,68.98
2023-03-05T19:58:20.101Z,68.63
2023-03-05T20:00:46.553Z,68.26
2023-03-05T20:03:13.045Z,68.36
2023-03-05T20:05:40.965Z,69.12
2023-03-05T20:08:07.555Z,68.34
2023-03-05T20:10:33.963Z,69.32
2023-03-05T20:13:00.306Z,68.66
2023-03-05T20:15:29.218Z,69.29
2023-03-05T20:17:57.188Z,69.40
2023-03-05T20:20:23.791Z,69.75
2023-03-05T20:22:50.433Z,69.06
2023-03-05T20:25:17.774Z,69.60
2023-03-05T20:27:45.401Z,69.34
2023-03-05T20:30:12.946Z,70.20
2023-03-05T20:32:40.889Z,70.21
2023-03-05T20:35:07.872Z,70.38
2023-03-05T20:38:20.088Z,70.65
2023-03-05T20:40:48.529Z,71.14
2023-03-05T20:43:14.956Z,70.42
2023-03-05T20:45:41.305Z,71.16
2023-03-05T20:48:07.748Z,71.44
2023-03-05T20:50:34.299Z,72.33
2023-03-05T20:53:00.692Z,71.82
2023-03-05T20:55:28.852Z,72.20
2023-03-05T20:57:55.631Z,72.21
2023-03-05T21:00:22.283Z,72.56
2023-03-05T21:02:51.451Z,72.70
2023-03-05T21:05:20.275Z,72.72
2023-03-05T21:07:46.636Z,72.84
2023-03-05T21:10:14.106Z,72.05
2023-03-05T21:12:40.427Z,73.41
2023-03-05T21:15:07.119Z,73.17
2023-03-05T21:17:33.448Z,73.53
2023-03-05T21:20:00.104Z,73.00
2023-03-05T21:22:26.442Z,73.39
2023-03-05T21:25:14.114Z,74.37
2023-03-05T21:27:40.577Z,73.31
2023-03-05T21:30:07.263Z,73.50
2023-03-05T21:32:34.582Z,73.65
2023-03-05T21:35:01.244Z,73.21
2023-03-05T21:37:27.714Z,73.81
2023-03-05T21:39:54.059Z,73.88
2023-03-05T21:42:20.534Z,74.02
2023-03-05T21:44:48.183Z,74.89
2023-03-05T21:47:14.506Z,75.06
2023-03-05T21:49:40.998Z,74.92
2023-03-05T21:52:11.726Z,74.93
2023-03-05T21:54:39.122Z,75.60
2023-03-05T21:57:06.473Z,75.66
2023-03-05T21:59:32.915Z,75.59
2023-03-05T22:01:59.566Z,75.06
2023-03-05T22:04:26.379Z,75.63
2023-03-05T22:06:52.981Z,74.83
2023-03-05T22:09:19.728Z,74.63
2023-03-05T22:11:46.186Z,75.38
2023-03-05T22:14:12.539Z,74.22
2023-03-05T22:16:39.048Z,75.06
2023-03-05T22:19:05.697Z,75.03
2023-03-05T22:21:32.056Z,75.02
2023-03-05T22:23:58.911Z,74.85
2023-03-05T22:26:26.566Z,75.05
2023-03-05T22:28:52.885Z,74.74
2023-03-05T22:31:23.160Z,74.78
2023-03-05T22:33:50.115Z,75.49
2023-03-05T22:36:16.448Z,75.49
2023-03-05T22:38:42.814Z,75.16
2023-03-05T22:41:10.199Z,75.29
2023-03-05T22:43:36.596Z,75.74
2023-03-05T22:46:10.435Z,75.83
2023-03-05T22:48:36.902Z,76.39
2023-03-05T22:51:03.204Z,76.06
2023-03-05T22:53:29.554Z,76.06
2023-03-05T22:55:55.893Z,74.97
2023-03-05T22:58:22.245Z,75.87
2023-03-05T23:00:48.764Z,75.94
2023-03-05T23:03:15.722Z,75.47
2023-03-05T23:05:42.077Z,76.30
2023-03-05T23:08:08.541Z,75.52
2023-03-05T23:10:34.933Z,75.18
2023-03-05T23:13:01.552Z,75.46
2023-03-05T23:15:29.349Z,76.01
2023-03-05T23:17:55.882Z,75.92
2023-03-05T23:20:23.878Z,75.12
2023-03-05T23:22:52.852Z,75.74
2023-03-05T23:25:20.328Z,75.90
2023-03-05T23:27:46.629Z,76.29
2023-03-05T23:30:21.926Z,76.62
2023-03-05T23:32:51.518Z,76.55
2023-03-05T23:35:19.841Z,76.38
2023-03-05T23:37:46.302Z,76.23
2023-03-05T23:40:15.359Z,76.20
2023-03-05T23:42:42.231Z,76.16
2023-03-05T23:45:09.666Z,76.08
2023-03-05T23:47:36.356Z,75.62
2023-03-05T23:50:07.197Z,76.42
2023-03-05T23:52:33.721Z,76.81
2023-03-05T23:55:00.053Z,76.74
2023-03-05T23:57:26.494Z,76.13
2023-03-05T23:59:52.788Z,75.85
